sensor_id;sensor_type;location;lat;lon;timestamp;P1;durP1;ratioP1;P2;durP2;ratioP2
1721;SDS011;858;53.190;8.596;2023-11-21T00:00:30;25.50;;;11.70;;
1721;SDS011;858;53.190;8.596;2023-11-21T00:02:57;18.20;;;11.70;;
1721;SDS011;858;53.190;8.596;2023-11-21T00:05:23;30.67;;;11.97;;
1721;SDS011;858;53.190;8.596;2023-11-21T00:07:50;24.23;;;12.30;;
1721;SDS011;858;53.190;8.596;2023-11-21T00:10:16;24.83;;;11.90;;
1721;SDS011;858;53.190;8.596;2023-11-21T00:12:43;21.00;;;11.20;;
1721;SDS011;858;53.190;8.596;2023-11-21T00:15:10;31.63;;;13.87;;
1721;SDS011;858;53.190;8.596;2023-11-21T00:17:39;27.87;;;12.90;;
1721;SDS011;858;53.190;8.596;2023-11-21T00:20:06;33.27;;;13.17;;
1721;SDS011;858;53.190;8.596;2023-11-21T00:22:37;26.00;;;15.37;;
1721;SDS011;858;53.190;8.596;2023-11-21T00:25:05;29.17;;;12.37;;
1721;SDS011;858;53.190;8.596;2023-11-21T00:27:34;26.63;;;12.00;;
1721;SDS011;858;53.190;8.596;2023-11-21T00:30:00;32.93;;;13.33;;
1721;SDS011;858;53.190;8.596;2023-11-21T00:32:29;22.47;;;11.50;;
1721;SDS011;858;53.190;8.596;2023-11-21T00:34:57;22.40;;;11.50;;
1721;SDS011;858;53.190;8.596;2023-11-21T00:37:24;24.33;;;12.13;;
1721;SDS011;858;53.190;8.596;2023-11-21T00:39:50;19.67;;;11.43;;
1721;SDS011;858;53.190;8.596;2023-11-21T00:42:17;21.50;;;11.90;;
1721;SDS011;858;53.190;8.596;2023-11-21T00:44:43;17.20;;;11.13;;
1721;SDS011;858;53.190;8.596;2023-11-21T00:47:10;16.00;;;10.67;;
1721;SDS011;858;53.190;8.596;2023-11-21T00:49:37;17.67;;;11.23;;
1721;SDS011;858;53.190;8.596;2023-11-21T00:52:06;19.97;;;10.13;;
1721;SDS011;858;53.190;8.596;2023-11-21T00:54:32;15.17;;;10.03;;
1721;SDS011;858;53.190;8.596;2023-11-21T00:56:58;23.07;;;11.33;;
1721;SDS011;858;53.190;8.596;2023-11-21T00:59:25;19.97;;;9.77;;
1721;SDS011;858;53.190;8.596;2023-11-21T01:01:51;13.90;;;8.97;;
1721;SDS011;858;53.190;8.596;2023-11-21T01:04:19;14.53;;;9.87;;
1721;SDS011;858;53.190;8.596;2023-11-21T01:06:45;20.80;;;9.80;;
1721;SDS011;858;53.190;8.596;2023-11-21T01:09:13;15.27;;;9.60;;
1721;SDS011;858;53.190;8.596;2023-11-21T01:11:40;19.43;;;9.50;;
1721;SDS011;858;53.190;8.596;2023-11-21T01:14:06;12.30;;;7.70;;
1721;SDS011;858;53.190;8.596;2023-11-21T01:16:33;14.77;;;8.50;;
1721;SDS011;858;53.190;8.596;2023-11-21T01:19:00;11.17;;;9.20;;
1721;SDS011;858;53.190;8.596;2023-11-21T01:21:27;16.73;;;8.40;;
1721;SDS011;858;53.190;8.596;2023-11-21T01:23:54;18.03;;;9.83;;
1721;SDS011;858;53.190;8.596;2023-11-21T01:26:23;12.37;;;8.10;;
1721;SDS011;858;53.190;8.596;2023-11-21T01:28:49;14.90;;;9.00;;
1721;SDS011;858;53.190;8.596;2023-11-21T01:31:15;10.73;;;8.60;;
1721;SDS011;858;53.190;8.596;2023-11-21T01:33:42;14.27;;;9.67;;
1721;SDS011;858;53.190;8.596;2023-11-21T01:36:10;16.27;;;9.63;;
1721;SDS011;858;53.190;8.596;2023-11-21T01:38:37;16.37;;;9.57;;
1721;SDS011;858;53.190;8.596;2023-11-21T01:41:04;16.07;;;10.83;;
1721;SDS011;858;53.190;8.596;2023-11-21T01:43:32;16.63;;;9.80;;
1721;SDS011;858;53.190;8.596;2023-11-21T01:45:59;16.77;;;10.27;;
1721;SDS011;858;53.190;8.596;2023-11-21T01:48:26;24.37;;;11.83;;
1721;SDS011;858;53.190;8.596;2023-11-21T01:50:53;18.30;;;10.60;;
1721;SDS011;858;53.190;8.596;2023-11-21T01:53:19;16.53;;;10.77;;
1721;SDS011;858;53.190;8.596;2023-11-21T01:55:46;23.63;;;10.63;;
1721;SDS011;858;53.190;8.596;2023-11-21T01:58:12;21.07;;;10.70;;
1721;SDS011;858;53.190;8.596;2023-11-21T02:00:41;19.33;;;9.03;;
1721;SDS011;858;53.190;8.596;2023-11-21T02:03:06;15.17;;;9.50;;
1721;SDS011;858;53.190;8.596;2023-11-21T02:05:33;15.30;;;10.53;;
1721;SDS011;858;53.190;8.596;2023-11-21T02:07:59;21.17;;;10.23;;
1721;SDS011;858;53.190;8.596;2023-11-21T02:10:27;18.40;;;11.80;;
1721;SDS011;858;53.190;8.596;2023-11-21T02:12:54;23.03;;;10.50;;
1721;SDS011;858;53.190;8.596;2023-11-21T02:15:22;18.03;;;10.23;;
1721;SDS011;858;53.190;8.596;2023-11-21T02:17:55;17.67;;;11.53;;
1721;SDS011;858;53.190;8.596;2023-11-21T02:20:23;28.23;;;13.60;;
1721;SDS011;858;53.190;8.596;2023-11-21T02:22:53;17.27;;;12.67;;
1721;SDS011;858;53.190;8.596;2023-11-21T02:25:22;23.77;;;13.40;;
1721;SDS011;858;53.190;8.596;2023-11-21T02:27:50;22.47;;;12.77;;
1721;SDS011;858;53.190;8.596;2023-11-21T02:30:19;24.97;;;14.77;;
1721;SDS011;858;53.190;8.596;2023-11-21T02:32:48;32.37;;;16.47;;
1721;SDS011;858;53.190;8.596;2023-11-21T02:35:14;25.47;;;11.43;;
1721;SDS011;858;53.190;8.596;2023-11-21T02:37:41;20.57;;;12.73;;
1721;SDS011;858;53.190;8.596;2023-11-21T02:40:11;25.77;;;11.70;;
1721;SDS011;858;53.190;8.596;2023-11-21T02:42:39;19.83;;;12.43;;
1721;SDS011;858;53.190;8.596;2023-11-21T02:45:06;24.73;;;11.17;;
1721;SDS011;858;53.190;8.596;2023-11-21T02:47:32;21.03;;;12.40;;
1721;SDS011;858;53.190;8.596;2023-11-21T02:49:59;24.50;;;11.50;;
1721;SDS011;858;53.190;8.596;2023-11-21T02:52:27;22.53;;;13.13;;
1721;SDS011;858;53.190;8.596;2023-11-21T02:54:54;21.13;;;11.83;;
1721;SDS011;858;53.190;8.596;2023-11-21T02:57:21;24.10;;;13.20;;
1721;SDS011;858;53.190;8.596;2023-11-21T02:59:48;26.83;;;13.90;;
1721;SDS011;858;53.190;8.596;2023-11-21T03:02:15;26.43;;;13.47;;
1721;SDS011;858;53.190;8.596;2023-11-21T03:04:41;28.30;;;15.17;;
1721;SDS011;858;53.190;8.596;2023-11-21T03:07:08;24.60;;;13.60;;
1721;SDS011;858;53.190;8.596;2023-11-21T03:09:36;30.03;;;14.43;;
1721;SDS011;858;53.190;8.596;2023-11-21T03:12:04;24.70;;;15.37;;
1721;SDS011;858;53.190;8.596;2023-11-21T03:14:31;35.30;;;15.50;;
1721;SDS011;858;53.190;8.596;2023-11-21T03:16:58;27.03;;;16.10;;
1721;SDS011;858;53.190;8.596;2023-11-21T03:19:24;24.73;;;13.40;;
1721;SDS011;858;53.190;8.596;2023-11-21T03:21:51;31.10;;;15.47;;
1721;SDS011;858;53.190;8.596;2023-11-21T03:24:18;28.03;;;16.53;;
1721;SDS011;858;53.190;8.596;2023-11-21T03:26:45;31.93;;;16.23;;
1721;SDS011;858;53.190;8.596;2023-11-21T03:29:11;33.53;;;15.37;;
1721;SDS011;858;53.190;8.596;2023-11-21T03:31:40;31.03;;;15.30;;
1721;SDS011;858;53.190;8.596;2023-11-21T03:34:06;33.97;;;16.43;;
1721;SDS011;858;53.190;8.596;2023-11-21T03:36:33;39.43;;;16.37;;
1721;SDS011;858;53.190;8.596;2023-11-21T03:38:59;36.47;;;18.57;;
1721;SDS011;858;53.190;8.596;2023-11-21T03:41:25;32.87;;;16.70;;
1721;SDS011;858;53.190;8.596;2023-11-21T03:43:52;37.83;;;18.27;;
1721;SDS011;858;53.190;8.596;2023-11-21T03:46:18;38.40;;;18.80;;
1721;SDS011;858;53.190;8.596;2023-11-21T03:48:46;35.37;;;18.60;;
1721;SDS011;858;53.190;8.596;2023-11-21T03:51:12;33.03;;;19.23;;
1721;SDS011;858;53.190;8.596;2023-11-21T03:53:39;40.83;;;21.23;;
1721;SDS011;858;53.190;8.596;2023-11-21T03:56:06;40.20;;;20.20;;
1721;SDS011;858;53.190;8.596;2023-11-21T03:58:32;38.50;;;19.80;;
1721;SDS011;858;53.190;8.596;2023-11-21T04:00:59;37.47;;;20.23;;
1721;SDS011;858;53.190;8.596;2023-11-21T04:03:26;42.23;;;22.40;;
1721;SDS011;858;53.190;8.596;2023-11-21T04:05:54;43.20;;;20.90;;
1721;SDS011;858;53.190;8.596;2023-11-21T04:08:21;35.47;;;19.37;;
1721;SDS011;858;53.190;8.596;2023-11-21T04:10:47;38.30;;;19.17;;
1721;SDS011;858;53.190;8.596;2023-11-21T04:13:13;34.90;;;18.90;;
1721;SDS011;858;53.190;8.596;2023-11-21T04:15:40;41.67;;;19.90;;
1721;SDS011;858;53.190;8.596;2023-11-21T04:18:06;37.77;;;20.30;;
1721;SDS011;858;53.190;8.596;2023-11-21T04:20:33;36.27;;;19.60;;
1721;SDS011;858;53.190;8.596;2023-11-21T04:23:01;36.20;;;20.27;;
1721;SDS011;858;53.190;8.596;2023-11-21T04:25:28;38.30;;;21.03;;
1721;SDS011;858;53.190;8.596;2023-11-21T04:27:54;42.87;;;20.63;;
1721;SDS011;858;53.190;8.596;2023-11-21T04:30:21;37.13;;;20.77;;
1721;SDS011;858;53.190;8.596;2023-11-21T04:32:47;35.40;;;20.00;;
1721;SDS011;858;53.190;8.596;2023-11-21T04:35:14;34.53;;;18.90;;
1721;SDS011;858;53.190;8.596;2023-11-21T04:37:40;32.30;;;18.80;;
1721;SDS011;858;53.190;8.596;2023-11-21T04:40:09;36.80;;;20.70;;
1721;SDS011;858;53.190;8.596;2023-11-21T04:42:35;35.20;;;18.70;;
1721;SDS011;858;53.190;8.596;2023-11-21T04:45:03;42.90;;;20.30;;
1721;SDS011;858;53.190;8.596;2023-11-21T04:47:33;44.17;;;21.90;;
1721;SDS011;858;53.190;8.596;2023-11-21T04:50:00;36.70;;;19.23;;
1721;SDS011;858;53.190;8.596;2023-11-21T04:52:26;38.43;;;22.30;;
1721;SDS011;858;53.190;8.596;2023-11-21T04:54:52;33.67;;;18.80;;
1721;SDS011;858;53.190;8.596;2023-11-21T04:57:21;36.37;;;19.67;;
1721;SDS011;858;53.190;8.596;2023-11-21T04:59:48;34.17;;;19.70;;
1721;SDS011;858;53.190;8.596;2023-11-21T05:02:15;36.40;;;20.47;;
1721;SDS011;858;53.190;8.596;2023-11-21T05:04:43;32.93;;;18.90;;
1721;SDS011;858;53.190;8.596;2023-11-21T05:07:09;44.00;;;21.70;;
1721;SDS011;858;53.190;8.596;2023-11-21T05:09:35;38.43;;;21.73;;
1721;SDS011;858;53.190;8.596;2023-11-21T05:12:03;40.60;;;22.00;;
1721;SDS011;858;53.190;8.596;2023-11-21T05:14:30;36.93;;;23.37;;
1721;SDS011;858;53.190;8.596;2023-11-21T05:16:57;40.53;;;21.40;;
1721;SDS011;858;53.190;8.596;2023-11-21T05:19:24;31.23;;;20.30;;
1721;SDS011;858;53.190;8.596;2023-11-21T05:21:52;36.40;;;20.07;;
1721;SDS011;858;53.190;8.596;2023-11-21T05:24:18;32.23;;;19.60;;
1721;SDS011;858;53.190;8.596;2023-11-21T05:26:45;29.40;;;18.63;;
1721;SDS011;858;53.190;8.596;2023-11-21T05:29:11;25.83;;;16.20;;
1721;SDS011;858;53.190;8.596;2023-11-21T05:31:39;26.70;;;17.07;;
1721;SDS011;858;53.190;8.596;2023-11-21T05:34:05;29.63;;;18.00;;
1721;SDS011;858;53.190;8.596;2023-11-21T05:36:32;26.40;;;16.60;;
1721;SDS011;858;53.190;8.596;2023-11-21T05:38:58;25.13;;;15.50;;
1721;SDS011;858;53.190;8.596;2023-11-21T05:41:25;24.50;;;15.90;;
1721;SDS011;858;53.190;8.596;2023-11-21T05:43:51;23.67;;;14.60;;
1721;SDS011;858;53.190;8.596;2023-11-21T05:46:19;19.83;;;13.30;;
1721;SDS011;858;53.190;8.596;2023-11-21T05:48:48;21.23;;;13.70;;
1721;SDS011;858;53.190;8.596;2023-11-21T05:51:14;20.67;;;13.20;;
1721;SDS011;858;53.190;8.596;2023-11-21T05:53:42;18.00;;;12.50;;
1721;SDS011;858;53.190;8.596;2023-11-21T05:56:08;19.33;;;13.13;;
1721;SDS011;858;53.190;8.596;2023-11-21T05:58:34;17.13;;;12.43;;
1721;SDS011;858;53.190;8.596;2023-11-21T06:01:01;18.30;;;11.87;;
1721;SDS011;858;53.190;8.596;2023-11-21T06:03:27;19.53;;;11.13;;
1721;SDS011;858;53.190;8.596;2023-11-21T06:05:56;16.13;;;10.67;;
1721;SDS011;858;53.190;8.596;2023-11-21T06:08:22;16.63;;;10.00;;
1721;SDS011;858;53.190;8.596;2023-11-21T06:10:49;14.67;;;10.00;;
1721;SDS011;858;53.190;8.596;2023-11-21T06:13:16;16.43;;;11.40;;
1721;SDS011;858;53.190;8.596;2023-11-21T06:15:45;15.27;;;9.93;;
1721;SDS011;858;53.190;8.596;2023-11-21T06:18:12;11.77;;;8.30;;
1721;SDS011;858;53.190;8.596;2023-11-21T06:20:38;12.07;;;8.70;;
1721;SDS011;858;53.190;8.596;2023-11-21T06:23:06;12.30;;;8.90;;
1721;SDS011;858;53.190;8.596;2023-11-21T06:25:32;10.73;;;8.13;;
1721;SDS011;858;53.190;8.596;2023-11-21T06:28:01;13.03;;;8.70;;
1721;SDS011;858;53.190;8.596;2023-11-21T06:30:27;16.57;;;10.07;;
1721;SDS011;858;53.190;8.596;2023-11-21T06:32:54;15.80;;;10.23;;
1721;SDS011;858;53.190;8.596;2023-11-21T06:35:21;11.93;;;9.83;;
1721;SDS011;858;53.190;8.596;2023-11-21T06:37:47;17.40;;;10.50;;
1721;SDS011;858;53.190;8.596;2023-11-21T06:40:17;10.90;;;8.00;;
1721;SDS011;858;53.190;8.596;2023-11-21T06:42:44;11.90;;;8.70;;
1721;SDS011;858;53.190;8.596;2023-11-21T06:45:11;14.70;;;9.13;;
1721;SDS011;858;53.190;8.596;2023-11-21T06:47:38;12.53;;;9.03;;
1721;SDS011;858;53.190;8.596;2023-11-21T06:50:07;13.63;;;9.67;;
1721;SDS011;858;53.190;8.596;2023-11-21T06:52:33;13.83;;;9.20;;
1721;SDS011;858;53.190;8.596;2023-11-21T06:55:00;13.83;;;9.60;;
1721;SDS011;858;53.190;8.596;2023-11-21T06:57:28;13.43;;;10.50;;
1721;SDS011;858;53.190;8.596;2023-11-21T06:59:55;14.30;;;9.00;;
1721;SDS011;858;53.190;8.596;2023-11-21T07:02:22;14.57;;;9.80;;
1721;SDS011;858;53.190;8.596;2023-11-21T07:04:50;12.30;;;9.33;;
1721;SDS011;858;53.190;8.596;2023-11-21T07:07:17;14.13;;;9.43;;
1721;SDS011;858;53.190;8.596;2023-11-21T07:09:44;13.87;;;9.80;;
1721;SDS011;858;53.190;8.596;2023-11-21T07:12:10;15.47;;;9.90;;
1721;SDS011;858;53.190;8.596;2023-11-21T07:14:38;18.90;;;10.67;;
1721;SDS011;858;53.190;8.596;2023-11-21T07:17:06;13.60;;;9.83;;
1721;SDS011;858;53.190;8.596;2023-11-21T07:19:32;14.43;;;9.10;;
1721;SDS011;858;53.190;8.596;2023-11-21T07:21:59;15.67;;;10.37;;
1721;SDS011;858;53.190;8.596;2023-11-21T07:24:25;21.97;;;11.90;;
1721;SDS011;858;53.190;8.596;2023-11-21T07:26:52;17.27;;;11.00;;
1721;SDS011;858;53.190;8.596;2023-11-21T07:29:21;17.50;;;11.80;;
1721;SDS011;858;53.190;8.596;2023-11-21T07:31:52;17.23;;;10.60;;
1721;SDS011;858;53.190;8.596;2023-11-21T07:34:18;14.70;;;10.87;;
1721;SDS011;858;53.190;8.596;2023-11-21T07:36:46;14.90;;;10.00;;
1721;SDS011;858;53.190;8.596;2023-11-21T07:39:13;15.70;;;11.10;;
1721;SDS011;858;53.190;8.596;2023-11-21T07:41:42;16.03;;;11.17;;
1721;SDS011;858;53.190;8.596;2023-11-21T07:44:13;17.70;;;11.30;;
1721;SDS011;858;53.190;8.596;2023-11-21T07:46:40;18.37;;;12.20;;
1721;SDS011;858;53.190;8.596;2023-11-21T07:49:08;12.50;;;10.10;;
1721;SDS011;858;53.190;8.596;2023-11-21T07:51:35;17.03;;;12.10;;
1721;SDS011;858;53.190;8.596;2023-11-21T07:54:01;16.90;;;11.50;;
1721;SDS011;858;53.190;8.596;2023-11-21T07:56:27;17.37;;;11.83;;
1721;SDS011;858;53.190;8.596;2023-11-21T07:58:53;15.37;;;11.33;;
1721;SDS011;858;53.190;8.596;2023-11-21T08:01:20;16.40;;;12.23;;
1721;SDS011;858;53.190;8.596;2023-11-21T08:03:47;14.00;;;10.17;;
1721;SDS011;858;53.190;8.596;2023-11-21T08:06:17;15.60;;;11.63;;
1721;SDS011;858;53.190;8.596;2023-11-21T08:08:45;18.63;;;12.10;;
1721;SDS011;858;53.190;8.596;2023-11-21T08:11:12;18.50;;;12.30;;
1721;SDS011;858;53.190;8.596;2023-11-21T08:13:38;22.93;;;12.83;;
1721;SDS011;858;53.190;8.596;2023-11-21T08:16:05;15.23;;;10.17;;
1721;SDS011;858;53.190;8.596;2023-11-21T08:18:32;17.10;;;11.83;;
1721;SDS011;858;53.190;8.596;2023-11-21T08:20:59;15.93;;;11.17;;
1721;SDS011;858;53.190;8.596;2023-11-21T08:23:27;15.47;;;11.77;;
1721;SDS011;858;53.190;8.596;2023-11-21T08:25:53;17.33;;;11.53;;
1721;SDS011;858;53.190;8.596;2023-11-21T08:28:20;17.50;;;11.87;;
1721;SDS011;858;53.190;8.596;2023-11-21T08:30:51;17.10;;;10.50;;
1721;SDS011;858;53.190;8.596;2023-11-21T08:33:17;18.20;;;12.03;;
1721;SDS011;858;53.190;8.596;2023-11-21T08:35:44;17.57;;;12.33;;
1721;SDS011;858;53.190;8.596;2023-11-21T08:38:10;21.43;;;12.43;;
1721;SDS011;858;53.190;8.596;2023-11-21T08:40:38;17.07;;;11.70;;
1721;SDS011;858;53.190;8.596;2023-11-21T08:43:05;18.10;;;11.90;;
1721;SDS011;858;53.190;8.596;2023-11-21T08:45:32;18.53;;;12.47;;
1721;SDS011;858;53.190;8.596;2023-11-21T08:47:59;16.87;;;11.20;;
1721;SDS011;858;53.190;8.596;2023-11-21T08:50:25;18.20;;;11.50;;
1721;SDS011;858;53.190;8.596;2023-11-21T08:52:53;16.30;;;10.50;;
1721;SDS011;858;53.190;8.596;2023-11-21T08:55:19;15.30;;;11.60;;
1721;SDS011;858;53.190;8.596;2023-11-21T08:57:48;17.07;;;11.20;;
1721;SDS011;858;53.190;8.596;2023-11-21T09:00:16;15.30;;;11.10;;
1721;SDS011;858;53.190;8.596;2023-11-21T09:02:44;15.50;;;10.60;;
1721;SDS011;858;53.190;8.596;2023-11-21T09:05:10;16.90;;;11.20;;
1721;SDS011;858;53.190;8.596;2023-11-21T09:07:38;15.37;;;10.90;;
1721;SDS011;858;53.190;8.596;2023-11-21T09:10:06;15.90;;;10.80;;
1721;SDS011;858;53.190;8.596;2023-11-21T09:12:34;16.17;;;10.83;;
1721;SDS011;858;53.190;8.596;2023-11-21T09:15:04;15.80;;;11.17;;
1721;SDS011;858;53.190;8.596;2023-11-21T09:17:30;15.97;;;10.43;;
1721;SDS011;858;53.190;8.596;2023-11-21T09:19:57;14.83;;;10.67;;
1721;SDS011;858;53.190;8.596;2023-11-21T09:22:26;13.90;;;10.27;;
1721;SDS011;858;53.190;8.596;2023-11-21T09:24:54;15.10;;;10.70;;
1721;SDS011;858;53.190;8.596;2023-11-21T09:27:21;17.50;;;10.20;;
1721;SDS011;858;53.190;8.596;2023-11-21T09:29:48;13.43;;;10.47;;
1721;SDS011;858;53.190;8.596;2023-11-21T09:32:16;14.93;;;10.10;;
1721;SDS011;858;53.190;8.596;2023-11-21T09:34:43;13.80;;;10.10;;
1721;SDS011;858;53.190;8.596;2023-11-21T09:37:10;15.30;;;10.67;;
1721;SDS011;858;53.190;8.596;2023-11-21T09:39:37;13.30;;;10.13;;
1721;SDS011;858;53.190;8.596;2023-11-21T09:42:04;13.27;;;9.10;;
1721;SDS011;858;53.190;8.596;2023-11-21T09:44:36;13.50;;;10.87;;
1721;SDS011;858;53.190;8.596;2023-11-21T09:47:07;14.87;;;10.30;;
1721;SDS011;858;53.190;8.596;2023-11-21T09:49:37;17.90;;;12.10;;
1721;SDS011;858;53.190;8.596;2023-11-21T09:52:05;26.70;;;11.80;;
1721;SDS011;858;53.190;8.596;2023-11-21T09:54:35;25.63;;;12.20;;
1721;SDS011;858;53.190;8.596;2023-11-21T09:57:01;15.20;;;10.33;;
1721;SDS011;858;53.190;8.596;2023-11-21T09:59:30;11.50;;;9.53;;
1721;SDS011;858;53.190;8.596;2023-11-21T10:01:56;15.00;;;10.40;;
1721;SDS011;858;53.190;8.596;2023-11-21T10:04:25;16.47;;;9.93;;
1721;SDS011;858;53.190;8.596;2023-11-21T10:06:53;20.73;;;10.00;;
1721;SDS011;858;53.190;8.596;2023-11-21T10:09:19;22.50;;;12.97;;
1721;SDS011;858;53.190;8.596;2023-11-21T10:11:47;13.90;;;10.50;;
1721;SDS011;858;53.190;8.596;2023-11-21T10:14:15;13.00;;;10.20;;
1721;SDS011;858;53.190;8.596;2023-11-21T10:16:44;11.83;;;9.80;;
1721;SDS011;858;53.190;8.596;2023-11-21T10:19:12;15.30;;;10.30;;
1721;SDS011;858;53.190;8.596;2023-11-21T10:21:41;16.50;;;12.30;;
1721;SDS011;858;53.190;8.596;2023-11-21T10:24:09;13.10;;;10.07;;
1721;SDS011;858;53.190;8.596;2023-11-21T10:26:37;13.67;;;10.30;;
1721;SDS011;858;53.190;8.596;2023-11-21T10:29:04;13.40;;;10.53;;
1721;SDS011;858;53.190;8.596;2023-11-21T10:31:30;15.30;;;10.70;;
1721;SDS011;858;53.190;8.596;2023-11-21T10:34:11;14.27;;;10.73;;
1721;SDS011;858;53.190;8.596;2023-11-21T10:36:38;12.40;;;9.73;;
1721;SDS011;858;53.190;8.596;2023-11-21T10:39:04;14.77;;;10.57;;
1721;SDS011;858;53.190;8.596;2023-11-21T10:41:32;15.87;;;10.10;;
1721;SDS011;858;53.190;8.596;2023-11-21T10:44:00;12.87;;;9.80;;
1721;SDS011;858;53.190;8.596;2023-11-21T10:46:29;21.07;;;11.97;;
1721;SDS011;858;53.190;8.596;2023-11-21T10:48:56;15.40;;;11.57;;
1721;SDS011;858;53.190;8.596;2023-11-21T10:51:23;11.53;;;9.33;;
1721;SDS011;858;53.190;8.596;2023-11-21T10:53:51;16.30;;;11.80;;
1721;SDS011;858;53.190;8.596;2023-11-21T10:56:18;12.83;;;10.00;;
1721;SDS011;858;53.190;8.596;2023-11-21T10:58:47;14.70;;;9.93;;
1721;SDS011;858;53.190;8.596;2023-11-21T11:01:14;17.20;;;9.90;;
1721;SDS011;858;53.190;8.596;2023-11-21T11:03:42;12.87;;;10.10;;
1721;SDS011;858;53.190;8.596;2023-11-21T11:06:09;15.50;;;9.97;;
1721;SDS011;858;53.190;8.596;2023-11-21T11:08:36;14.50;;;8.87;;
1721;SDS011;858;53.190;8.596;2023-11-21T11:11:03;14.73;;;9.77;;
1721;SDS011;858;53.190;8.596;2023-11-21T11:13:29;14.27;;;9.73;;
1721;SDS011;858;53.190;8.596;2023-11-21T11:15:58;15.37;;;8.97;;
1721;SDS011;858;53.190;8.596;2023-11-21T11:18:26;11.80;;;9.53;;
1721;SDS011;858;53.190;8.596;2023-11-21T11:20:53;11.50;;;8.70;;
1721;SDS011;858;53.190;8.596;2023-11-21T11:23:27;11.70;;;8.60;;
1721;SDS011;858;53.190;8.596;2023-11-21T11:26:01;12.40;;;8.97;;
1721;SDS011;858;53.190;8.596;2023-11-21T11:28:33;12.70;;;9.20;;
1721;SDS011;858;53.190;8.596;2023-11-21T11:31:05;14.50;;;9.60;;
1721;SDS011;858;53.190;8.596;2023-11-21T11:33:39;17.33;;;7.97;;
1721;SDS011;858;53.190;8.596;2023-11-21T11:36:09;10.80;;;7.13;;
1721;SDS011;858;53.190;8.596;2023-11-21T11:38:38;10.73;;;8.67;;
1721;SDS011;858;53.190;8.596;2023-11-21T11:41:07;8.70;;;7.20;;
1721;SDS011;858;53.190;8.596;2023-11-21T11:43:34;10.67;;;8.20;;
1721;SDS011;858;53.190;8.596;2023-11-21T11:46:10;11.30;;;8.03;;
1721;SDS011;858;53.190;8.596;2023-11-21T11:48:38;10.00;;;8.00;;
1721;SDS011;858;53.190;8.596;2023-11-21T11:51:06;9.90;;;7.07;;
1721;SDS011;858;53.190;8.596;2023-11-21T11:53:37;9.63;;;7.90;;
1721;SDS011;858;53.190;8.596;2023-11-21T11:56:23;9.73;;;7.93;;
1721;SDS011;858;53.190;8.596;2023-11-21T11:58:51;12.50;;;7.90;;
1721;SDS011;858;53.190;8.596;2023-11-21T12:01:20;11.73;;;8.20;;
1721;SDS011;858;53.190;8.596;2023-11-21T12:06:32;8.77;;;6.33;;
1721;SDS011;858;53.190;8.596;2023-11-21T12:09:00;9.23;;;6.67;;
1721;SDS011;858;53.190;8.596;2023-11-21T12:11:30;10.57;;;6.50;;
1721;SDS011;858;53.190;8.596;2023-11-21T12:13:56;7.73;;;6.20;;
1721;SDS011;858;53.190;8.596;2023-11-21T12:16:30;8.90;;;6.10;;
1721;SDS011;858;53.190;8.596;2023-11-21T12:18:58;8.43;;;6.70;;
1721;SDS011;858;53.190;8.596;2023-11-21T12:21:25;9.50;;;5.83;;
1721;SDS011;858;53.190;8.596;2023-11-21T12:23:52;7.07;;;5.83;;
1721;SDS011;858;53.190;8.596;2023-11-21T12:26:18;10.07;;;6.43;;
1721;SDS011;858;53.190;8.596;2023-11-21T12:28:51;9.07;;;5.93;;
1721;SDS011;858;53.190;8.596;2023-11-21T12:31:19;10.87;;;5.87;;
1721;SDS011;858;53.190;8.596;2023-11-21T12:33:47;12.60;;;7.13;;
1721;SDS011;858;53.190;8.596;2023-11-21T12:36:13;10.40;;;6.60;;
1721;SDS011;858;53.190;8.596;2023-11-21T12:38:40;7.30;;;6.53;;
1721;SDS011;858;53.190;8.596;2023-11-21T12:41:07;10.83;;;6.07;;
1721;SDS011;858;53.190;8.596;2023-11-21T12:43:33;8.10;;;5.80;;
1721;SDS011;858;53.190;8.596;2023-11-21T12:46:04;8.70;;;5.50;;
1721;SDS011;858;53.190;8.596;2023-11-21T12:48:31;6.80;;;6.00;;
1721;SDS011;858;53.190;8.596;2023-11-21T12:50:59;10.83;;;6.03;;
1721;SDS011;858;53.190;8.596;2023-11-21T12:53:27;11.37;;;5.87;;
1721;SDS011;858;53.190;8.596;2023-11-21T12:56:01;7.83;;;5.90;;
1721;SDS011;858;53.190;8.596;2023-11-21T12:58:28;8.20;;;6.13;;
1721;SDS011;858;53.190;8.596;2023-11-21T13:00:55;9.80;;;5.90;;
1721;SDS011;858;53.190;8.596;2023-11-21T13:03:24;9.97;;;6.00;;
1721;SDS011;858;53.190;8.596;2023-11-21T13:05:51;6.87;;;5.47;;
1721;SDS011;858;53.190;8.596;2023-11-21T13:08:21;9.67;;;5.97;;
1721;SDS011;858;53.190;8.596;2023-11-21T13:10:49;15.30;;;6.20;;
1721;SDS011;858;53.190;8.596;2023-11-21T13:13:15;7.77;;;6.17;;
1721;SDS011;858;53.190;8.596;2023-11-21T13:15:47;8.60;;;5.80;;
1721;SDS011;858;53.190;8.596;2023-11-21T13:18:13;9.30;;;5.40;;
1721;SDS011;858;53.190;8.596;2023-11-21T13:20:41;5.27;;;4.77;;
1721;SDS011;858;53.190;8.596;2023-11-21T13:23:09;6.87;;;4.90;;
1721;SDS011;858;53.190;8.596;2023-11-21T13:25:39;6.30;;;5.07;;
1721;SDS011;858;53.190;8.596;2023-11-21T13:28:08;6.60;;;5.70;;
1721;SDS011;858;53.190;8.596;2023-11-21T13:30:35;6.87;;;5.20;;
1721;SDS011;858;53.190;8.596;2023-11-21T13:33:03;9.63;;;6.07;;
1721;SDS011;858;53.190;8.596;2023-11-21T13:35:33;8.00;;;5.60;;
1721;SDS011;858;53.190;8.596;2023-11-21T13:38:03;7.23;;;5.90;;
1721;SDS011;858;53.190;8.596;2023-11-21T13:40:31;7.20;;;5.70;;
1721;SDS011;858;53.190;8.596;2023-11-21T13:43:00;7.10;;;5.50;;
1721;SDS011;858;53.190;8.596;2023-11-21T13:45:30;7.47;;;5.67;;
1721;SDS011;858;53.190;8.596;2023-11-21T13:47:58;7.03;;;5.37;;
1721;SDS011;858;53.190;8.596;2023-11-21T13:50:24;8.70;;;5.43;;
1721;SDS011;858;53.190;8.596;2023-11-21T13:52:56;9.60;;;5.77;;
1721;SDS011;858;53.190;8.596;2023-11-21T13:55:23;12.63;;;5.80;;
1721;SDS011;858;53.190;8.596;2023-11-21T13:57:50;7.07;;;5.43;;
1721;SDS011;858;53.190;8.596;2023-11-21T14:00:19;6.57;;;5.97;;
1721;SDS011;858;53.190;8.596;2023-11-21T14:02:59;7.70;;;5.90;;
1721;SDS011;858;53.190;8.596;2023-11-21T14:05:26;9.57;;;5.80;;
1721;SDS011;858;53.190;8.596;2023-11-21T14:07:54;9.70;;;5.93;;
1721;SDS011;858;53.190;8.596;2023-11-21T14:10:28;8.03;;;6.90;;
1721;SDS011;858;53.190;8.596;2023-11-21T14:13:02;6.27;;;4.87;;
1721;SDS011;858;53.190;8.596;2023-11-21T14:15:30;5.80;;;5.20;;
1721;SDS011;858;53.190;8.596;2023-11-21T14:17:58;7.03;;;5.03;;
1721;SDS011;858;53.190;8.596;2023-11-21T14:20:27;5.90;;;5.30;;
1721;SDS011;858;53.190;8.596;2023-11-21T14:22:55;5.90;;;5.30;;
1721;SDS011;858;53.190;8.596;2023-11-21T14:25:21;6.43;;;5.23;;
1721;SDS011;858;53.190;8.596;2023-11-21T14:27:49;6.73;;;5.87;;
1721;SDS011;858;53.190;8.596;2023-11-21T14:30:15;6.77;;;5.03;;
1721;SDS011;858;53.190;8.596;2023-11-21T14:32:45;6.37;;;5.10;;
1721;SDS011;858;53.190;8.596;2023-11-21T14:35:13;6.60;;;5.63;;
1721;SDS011;858;53.190;8.596;2023-11-21T14:37:40;5.77;;;4.90;;
1721;SDS011;858;53.190;8.596;2023-11-21T14:40:06;10.53;;;6.33;;
1721;SDS011;858;53.190;8.596;2023-11-21T14:42:33;7.30;;;5.47;;
1721;SDS011;858;53.190;8.596;2023-11-21T14:45:04;6.33;;;5.73;;
1721;SDS011;858;53.190;8.596;2023-11-21T14:47:32;5.27;;;4.70;;
1721;SDS011;858;53.190;8.596;2023-11-21T14:50:00;6.40;;;4.70;;
1721;SDS011;858;53.190;8.596;2023-11-21T14:52:47;6.13;;;5.03;;
1721;SDS011;858;53.190;8.596;2023-11-21T14:55:20;5.10;;;4.50;;
1721;SDS011;858;53.190;8.596;2023-11-21T14:57:56;4.67;;;4.27;;
1721;SDS011;858;53.190;8.596;2023-11-21T15:00:21;6.47;;;4.80;;
1721;SDS011;858;53.190;8.596;2023-11-21T15:03:06;8.30;;;6.37;;
1721;SDS011;858;53.190;8.596;2023-11-21T15:05:33;9.70;;;5.23;;
1721;SDS011;858;53.190;8.596;2023-11-21T15:08:01;5.03;;;3.60;;
1721;SDS011;858;53.190;8.596;2023-11-21T15:10:38;3.73;;;3.30;;
1721;SDS011;858;53.190;8.596;2023-11-21T15:13:11;9.53;;;6.97;;
1721;SDS011;858;53.190;8.596;2023-11-21T15:15:36;11.03;;;7.73;;